Time;durP1;ratioP1;P1;durP2;ratioP2;P2;SDS_P1;SDS_P2;PMS_P1;PMS_P2;Temp;Humidity;BMP_temperature;BMP_pressure;BME280_temperature;BME280_humidity;BME280_pressure;Samples;Min_cycle;Max_cycle;Signal;HPM_P1;HPM_P2
2022/09/28 00:01:25;;;;;;;;;;;;;;;;;;5172076;27;20400;-88
2022/09/28 00:03:53;;;;;;;;;;;;;;;;;;5172254;27;20315;-88
2022/09/28 00:06:20;;;;;;;;;;;;;;;;;;5171922;27;20354;-86
2022/09/28 00:08:46;;;;;;;;;;;;;;;;;;5171448;27;20327;-88
2022/09/28 00:11:12;;;;;;;;;;;;;;;;;;5171792;27;19940;-86
2022/09/28 00:13:38;;;;;;;;;;;;;;;;;;5172262;27;19960;-86
2022/09/28 00:16:05;;;;;;;;;;;;;;;;;;5171253;27;19923;-86
2022/09/28 00:18:31;;;;;;;;;;;;;;;;;;5171968;27;20334;-89
2022/09/28 00:21:16;;;;;;;;;;;;;;;;;;5171594;27;20005;-88
2022/09/28 00:26:26;;;;;;;;;;;;;;;;;;5171835;27;20405;-89
2022/09/28 00:28:53;;;;;;;;;;;;;;;;;;5156537;27;20366;-84
2022/09/28 00:31:18;;;;;;;;;;;;;;;;;;5139012;27;19918;-88
2022/09/28 00:33:44;;;;;;;;;;;;;;;;;;5157718;27;19915;-89
2022/09/28 00:36:09;;;;;;;;;;;;;;;;;;5157179;27;19919;-86
2022/09/28 00:38:35;;;;;;;;;;;;;;;;;;5139725;27;20286;-87
2022/09/28 00:41:00;;;;;;;;;;;;;;;;;;5157889;27;19923;-89
2022/09/28 00:43:25;;;;;;;;;;;;;;;;;;5139353;27;19922;-87
2022/09/28 00:46:11;;;;;;;;;;;;;;;;;;5157588;27;19926;-90
2022/09/28 00:48:38;;;;;;;;;;;;;;;;;;5150208;27;20373;-88
2022/09/28 00:51:06;;;;;;;;;;;;;;;;;;5117050;27;20427;-88
2022/09/28 00:53:33;;;;;;;;;;;;;;;;;;5140989;27;19931;-84
2022/09/28 00:56:06;;;;;;;;;;;;;;;;;;5133473;27;19940;-88
2022/09/28 00:58:37;;;;;;;;;;;;;;;;;;5150320;27;19915;-88
2022/09/28 01:01:03;;;;;;;;;;;;;;;;;;5147739;27;19916;-89
2022/09/28 01:03:29;;;;;;;;;;;;;;;;;;5143590;27;20457;-87
2022/09/28 01:05:56;;;;;;;;;;;;;;;;;;5136474;27;19966;-87
2022/09/28 01:08:23;;;;;;;;;;;;;;;;;;5117703;27;19947;-86
2022/09/28 01:10:49;;;;;;;;;;;;;;;;;;5136053;27;19960;-84
2022/09/28 01:13:16;;;;;;;;;;;;;;;;;;5136169;27;19959;-88
2022/09/28 01:15:47;;;;;;;;;;;;;;;;;;5135720;27;19919;-88
2022/09/28 01:18:18;;;;;;;;;;;;;;;;;;5117799;27;20324;-84
2022/09/28 01:20:55;;;;;;;;;;;;;;;;;;5136148;27;19919;-88
2022/09/28 01:23:29;;;;;;;;;;;;;;;;;;5117587;27;19984;-85
2022/09/28 01:25:54;;;;;;;;;;;;;;;;;;5136115;27;19960;-86
2022/09/28 01:28:22;;;;;;;;;;;;;;;;;;5117453;27;19919;-87
2022/09/28 01:31:06;;;;;;;;;;;;;;;;;;5135558;27;20327;-90
2022/09/28 01:33:41;;;;;;;;;;;;;;;;;;5117299;27;19927;-89
2022/09/28 01:36:10;;;;;;;;;;;;;;;;;;5116946;27;19980;-90
2022/09/28 01:38:38;;;;;;;;;;;;;;;;;;5135014;27;19924;-88
2022/09/28 01:41:04;;;;;;;;;;;;;;;;;;5135421;27;19922;-89
2022/09/28 01:43:33;;;;;;;;;;;;;;;;;;5135615;27;19923;-89
2022/09/28 01:46:09;;;;;;;;;;;;;;;;;;5117066;27;19915;-88
2022/09/28 01:48:37;;;;;;;;;;;;;;;;;;5117004;27;19922;-89
2022/09/28 01:51:09;;;;;;;;;;;;;;;;;;5135200;27;19967;-89
2022/09/28 01:53:45;;;;;;;;;;;;;;;;;;5116938;27;20010;-87
2022/09/28 01:56:12;;;;;;;;;;;;;;;;;;5116675;27;19958;-86
2022/09/28 01:58:57;;;;;;;;;;;;;;;;;;5135365;27;19915;-85
2022/09/28 02:01:26;;;;;;;;;;;;;;;;;;5134492;27;19920;-85
2022/09/28 02:04:00;;;;;;;;;;;;;;;;;;5135126;27;19934;-86
2022/09/28 02:06:32;;;;;;;;;;;;;;;;;;5134934;27;19927;-85
2022/09/28 02:09:01;;;;;;;;;;;;;;;;;;5134704;27;19915;-85
2022/09/28 02:11:26;;;;;;;;;;;;;;;;;;5135015;27;19930;-87
2022/09/28 02:13:59;;;;;;;;;;;;;;;;;;5134953;27;19919;-87
2022/09/28 02:16:33;;;;;;;;;;;;;;;;;;5134120;27;19919;-87
2022/09/28 02:18:59;;;;;;;;;;;;;;;;;;5135034;27;19976;-84
2022/09/28 02:21:34;;;;;;;;;;;;;;;;;;5116398;27;20410;-87
2022/09/28 02:24:07;;;;;;;;;;;;;;;;;;5134862;27;20397;-86
2022/09/28 02:26:35;;;;;;;;;;;;;;;;;;5134481;27;19915;-84
2022/09/28 02:29:00;;;;;;;;;;;;;;;;;;5116024;27;19975;-87
2022/09/28 02:31:26;;;;;;;;;;;;;;;;;;5134648;27;20458;-86
2022/09/28 02:33:53;;;;;;;;;;;;;;;;;;5134518;27;19915;-86
2022/09/28 02:36:19;;;;;;;;;;;;;;;;;;5134180;27;19919;-87
2022/09/28 02:38:44;;;;;;;;;;;;;;;;;;5116215;27;19916;-88
2022/09/28 02:41:20;;;;;;;;;;;;;;;;;;5134440;27;20274;-88
2022/09/28 02:43:57;;;;;;;;;;;;;;;;;;5134574;27;20397;-86
2022/09/28 02:46:28;;;;;;;;;;;;;;;;;;5134201;27;19933;-85
2022/09/28 02:48:57;;;;;;;;;;;;;;;;;;5134371;27;19968;-87
2022/09/28 02:51:41;;;;;;;;;;;;;;;;;;5133726;27;19949;-85
2022/09/28 02:54:06;;;;;;;;;;;;;;;;;;5115647;27;19923;-87
2022/09/28 02:56:31;;;;;;;;;;;;;;;;;;5121598;27;19919;-84
2022/09/28 02:59:04;;;;;;;;;;;;;;;;;;5154990;27;20361;-87
2022/09/28 03:01:48;;;;;;;;;;;;;;;;;;5135819;27;20009;-86
2022/09/28 03:04:17;;;;;;;;;;;;;;;;;;5129363;27;19959;-86
2022/09/28 03:06:45;;;;;;;;;;;;;;;;;;5136003;27;20378;-85
2022/09/28 03:09:34;;;;;;;;;;;;;;;;;;5154747;27;19923;-86
2022/09/28 03:12:02;;;;;;;;;;;;;;;;;;5130772;28;19952;-83
2022/09/28 03:14:27;;;;;;;;;;;;;;;;;;5137941;28;19916;-84
2022/09/28 03:16:53;;;;;;;;;;;;;;;;;;5120157;28;20468;-86
2022/09/28 03:19:21;;;;;;;;;;;;;;;;;;5120025;28;19961;-86
2022/09/28 03:21:46;;;;;;;;;;;;;;;;;;5115916;28;19930;-85
2022/09/28 03:24:12;;;;;;;;;;;;;;;;;;5135024;28;19919;-84
2022/09/28 03:26:37;;;;;;;;;;;;;;;;;;5133733;28;20310;-88
2022/09/28 03:29:03;;;;;;;;;;;;;;;;;;5132782;28;19916;-88
2022/09/28 03:31:28;;;;;;;;;;;;;;;;;;5133361;28;19915;-88
2022/09/28 03:33:54;;;;;;;;;;;;;;;;;;5133710;28;20350;-89
2022/09/28 03:36:20;;;;;;;;;;;;;;;;;;5133304;28;20418;-90
2022/09/28 03:38:45;;;;;;;;;;;;;;;;;;5133853;28;19919;-89
2022/09/28 03:41:11;;;;;;;;;;;;;;;;;;5133888;28;20358;-85
2022/09/28 03:43:36;;;;;;;;;;;;;;;;;;5133520;28;20294;-87
2022/09/28 03:46:01;;;;;;;;;;;;;;;;;;5140561;27;19960;-86
2022/09/28 03:48:28;;;;;;;;;;;;;;;;;;5116975;28;19961;-89
2022/09/28 03:50:55;;;;;;;;;;;;;;;;;;5114952;28;20290;-88
2022/09/28 03:53:20;;;;;;;;;;;;;;;;;;5115373;28;19942;-87
2022/09/28 03:55:46;;;;;;;;;;;;;;;;;;5139024;27;19970;-88
2022/09/28 03:58:11;;;;;;;;;;;;;;;;;;5147460;27;20375;-87
2022/09/28 04:00:37;;;;;;;;;;;;;;;;;;5149752;27;19936;-87
2022/09/28 04:03:02;;;;;;;;;;;;;;;;;;5144175;27;19915;-87
2022/09/28 04:05:28;;;;;;;;;;;;;;;;;;5145078;27;20350;-88
2022/09/28 04:07:56;;;;;;;;;;;;;;;;;;5138958;27;19920;-88
2022/09/28 04:10:22;;;;;;;;;;;;;;;;;;5126694;27;19928;-88
2022/09/28 04:12:48;;;;;;;;;;;;;;;;;;5128923;27;20306;-89
2022/09/28 04:15:14;;;;;;;;;;;;;;;;;;5143964;27;19919;-88
2022/09/28 04:17:39;;;;;;;;;;;;;;;;;;5142750;27;19915;-89
2022/09/28 04:20:05;;;;;;;;;;;;;;;;;;5151353;27;19915;-87
2022/09/28 04:22:31;;;;;;;;;;;;;;;;;;5157313;27;20010;-86
2022/09/28 04:24:57;;;;;;;;;;;;;;;;;;5157908;27;20052;-87
2022/09/28 04:30:07;;;;;;;;;;;;;;;;;;5157386;27;19979;-88
2022/09/28 04:32:32;;;;;;;;;;;;;;;;;;5139014;27;19915;-87
2022/09/28 04:34:57;;;;;;;;;;;;;;;;;;5157573;27;19915;-89
2022/09/28 04:37:23;;;;;;;;;;;;;;;;;;5157311;27;19915;-88
2022/09/28 04:39:48;;;;;;;;;;;;;;;;;;5139359;27;20376;-88
2022/09/28 04:42:14;;;;;;;;;;;;;;;;;;5158133;27;20333;-88
2022/09/28 04:44:40;;;;;;;;;;;;;;;;;;5157971;27;19915;-88
2022/09/28 04:47:05;;;;;;;;;;;;;;;;;;5138864;27;19919;-88
2022/09/28 04:49:30;;;;;;;;;;;;;;;;;;5138888;27;19998;-88
2022/09/28 04:51:56;;;;;;;;;;;;;;;;;;5156524;27;20408;-88
2022/09/28 04:54:21;;;;;;;;;;;;;;;;;;5157679;27;19915;-89
2022/09/28 04:56:47;;;;;;;;;;;;;;;;;;5155300;27;19904;-87
2022/09/28 04:59:13;;;;;;;;;;;;;;;;;;5152082;27;19923;-89
2022/09/28 05:01:38;;;;;;;;;;;;;;;;;;5149852;27;19907;-87
2022/09/28 05:04:04;;;;;;;;;;;;;;;;;;5151390;27;19942;-87
2022/09/28 05:06:29;;;;;;;;;;;;;;;;;;5132350;27;19915;-87
2022/09/28 05:08:56;;;;;;;;;;;;;;;;;;5139211;27;19922;-89
2022/09/28 05:11:21;;;;;;;;;;;;;;;;;;5136238;27;19919;-87
2022/09/28 05:13:49;;;;;;;;;;;;;;;;;;5136026;27;19971;-88
2022/09/28 05:16:15;;;;;;;;;;;;;;;;;;5136132;27;20396;-86
2022/09/28 05:18:40;;;;;;;;;;;;;;;;;;5137667;27;19962;-87
2022/09/28 05:21:10;;;;;;;;;;;;;;;;;;5141210;27;19959;-87
2022/09/28 05:23:35;;;;;;;;;;;;;;;;;;5135237;27;20374;-88
2022/09/28 05:26:01;;;;;;;;;;;;;;;;;;5136354;27;19923;-87
2022/09/28 05:28:27;;;;;;;;;;;;;;;;;;5118282;27;19926;-88
2022/09/28 05:30:57;;;;;;;;;;;;;;;;;;5136495;27;19920;-86
2022/09/28 05:33:22;;;;;;;;;;;;;;;;;;5135840;27;19915;-85
2022/09/28 05:35:47;;;;;;;;;;;;;;;;;;5118616;27;20010;-86
2022/09/28 05:38:13;;;;;;;;;;;;;;;;;;5135357;27;20356;-86
2022/09/28 05:40:38;;;;;;;;;;;;;;;;;;5135878;27;19916;-87
2022/09/28 05:43:04;;;;;;;;;;;;;;;;;;5135771;27;19959;-86
2022/09/28 05:45:29;;;;;;;;;;;;;;;;;;5117487;27;19915;-86
2022/09/28 05:47:55;;;;;;;;;;;;;;;;;;5136084;27;19926;-85
2022/09/28 05:50:20;;;;;;;;;;;;;;;;;;5117151;27;19919;-87
2022/09/28 05:52:46;;;;;;;;;;;;;;;;;;5116632;27;19964;-86
2022/09/28 05:55:11;;;;;;;;;;;;;;;;;;5116702;27;19923;-88
2022/09/28 05:57:37;;;;;;;;;;;;;;;;;;5135085;27;19919;-87
2022/09/28 06:00:07;;;;;;;;;;;;;;;;;;5116917;27;19919;-87
2022/09/28 06:02:33;;;;;;;;;;;;;;;;;;5117120;27;20298;-87
2022/09/28 06:04:58;;;;;;;;;;;;;;;;;;5116899;27;19916;-87
2022/09/28 06:07:24;;;;;;;;;;;;;;;;;;5134891;27;19926;-87
2022/09/28 06:09:49;;;;;;;;;;;;;;;;;;5116499;27;20005;-88
2022/09/28 06:12:15;;;;;;;;;;;;;;;;;;5116146;27;19915;-86
2022/09/28 06:14:40;;;;;;;;;;;;;;;;;;5116300;27;20316;-87
2022/09/28 06:17:06;;;;;;;;;;;;;;;;;;5134669;27;20037;-87
2022/09/28 06:19:31;;;;;;;;;;;;;;;;;;5134405;27;19915;-87
2022/09/28 06:21:57;;;;;;;;;;;;;;;;;;5116930;27;20010;-87
2022/09/28 06:24:23;;;;;;;;;;;;;;;;;;5139301;27;19916;-88
2022/09/28 06:26:48;;;;;;;;;;;;;;;;;;5102170;27;20435;-87
2022/09/28 06:29:18;;;;;;;;;;;;;;;;;;5134975;27;20471;-88
2022/09/28 06:31:44;;;;;;;;;;;;;;;;;;5115586;27;19958;-86
2022/09/28 06:34:10;;;;;;;;;;;;;;;;;;5135006;27;20006;-87
2022/09/28 06:36:35;;;;;;;;;;;;;;;;;;5134374;27;20413;-87
2022/09/28 06:39:01;;;;;;;;;;;;;;;;;;5134659;27;19969;-86
2022/09/28 06:41:26;;;;;;;;;;;;;;;;;;5116844;27;20017;-87
2022/09/28 06:43:52;;;;;;;;;;;;;;;;;;5134847;27;19915;-88
2022/09/28 06:46:17;;;;;;;;;;;;;;;;;;5134698;27;20323;-88
2022/09/28 06:48:43;;;;;;;;;;;;;;;;;;5134699;27;20436;-88
2022/09/28 06:51:09;;;;;;;;;;;;;;;;;;5134162;27;19922;-87
2022/09/28 06:53:34;;;;;;;;;;;;;;;;;;5134809;27;19915;-89
2022/09/28 06:56:01;;;;;;;;;;;;;;;;;;5134037;27;19915;-87
2022/09/28 06:58:27;;;;;;;;;;;;;;;;;;5133885;27;19923;-84
2022/09/28 07:00:52;;;;;;;;;;;;;;;;;;5134204;27;19926;-87
2022/09/28 07:03:21;;;;;;;;;;;;;;;;;;5134112;27;19916;-88
2022/09/28 07:05:51;;;;;;;;;;;;;;;;;;5133993;27;19919;-90
2022/09/28 07:08:17;;;;;;;;;;;;;;;;;;5134093;27;20427;-88
2022/09/28 07:10:43;;;;;;;;;;;;;;;;;;5133957;27;19923;-87
2022/09/28 07:13:09;;;;;;;;;;;;;;;;;;5133717;27;19921;-88
2022/09/28 07:15:35;;;;;;;;;;;;;;;;;;5133503;27;19920;-88
2022/09/28 07:18:01;;;;;;;;;;;;;;;;;;5115199;28;19916;-90
2022/09/28 07:20:26;;;;;;;;;;;;;;;;;;5115490;28;19920;-88
2022/09/28 07:22:53;;;;;;;;;;;;;;;;;;5133931;28;20414;-89
2022/09/28 07:25:18;;;;;;;;;;;;;;;;;;5133764;28;19919;-89
2022/09/28 07:27:43;;;;;;;;;;;;;;;;;;5133411;28;19920;-89
2022/09/28 07:30:09;;;;;;;;;;;;;;;;;;5115420;28;20383;-89
2022/09/28 07:32:36;;;;;;;;;;;;;;;;;;5115179;28;19916;-90
2022/09/28 07:35:07;;;;;;;;;;;;;;;;;;5128493;27;19956;-89
2022/09/28 07:37:34;;;;;;;;;;;;;;;;;;5137202;27;19915;-90
2022/09/28 07:42:43;;;;;;;;;;;;;;;;;;5158905;27;19922;-88
2022/09/28 07:45:09;;;;;;;;;;;;;;;;;;5139961;27;19915;-88
2022/09/28 07:47:34;;;;;;;;;;;;;;;;;;5158640;27;20608;-88
2022/09/28 07:49:59;;;;;;;;;;;;;;;;;;5139963;27;19919;-87
2022/09/28 07:52:27;;;;;;;;;;;;;;;;;;5139435;27;20422;-89
2022/09/28 07:54:53;;;;;;;;;;;;;;;;;;5158311;27;19944;-88
2022/09/28 07:57:19;;;;;;;;;;;;;;;;;;5139313;27;19915;-89
2022/09/28 08:02:51;;;;;;;;;;;;;;;;;;5091007;27;2331310;-87
2022/09/28 08:05:17;;;;;;;;;;;;;;;;;;5172895;27;20013;-87
2022/09/28 08:07:43;;;;;;;;;;;;;;;;;;5154230;27;19919;-88
2022/09/28 08:10:08;;;;;;;;;;;;;;;;;;5134451;27;19973;-86
2022/09/28 08:12:34;;;;;;;;;;;;;;;;;;5133055;27;19915;-88
2022/09/28 08:15:00;;;;;;;;;;;;;;;;;;5151913;27;19915;-86
2022/09/28 08:17:25;;;;;;;;;;;;;;;;;;5151672;27;19942;-87
2022/09/28 08:22:36;;;;;;;;;;;;;;;;;;5165888;27;20006;-88
2022/09/28 08:25:01;;;;;;;;;;;;;;;;;;5175381;27;20386;-86
2022/09/28 08:27:27;;;;;;;;;;;;;;;;;;5142665;27;19927;-87
2022/09/28 08:29:52;;;;;;;;;;;;;;;;;;5193021;22;19926;-87
2022/09/28 08:32:19;;;;;;;;;;;;;;;;;;5095922;28;19924;-86
2022/09/28 08:34:45;;;;;;;;;;;;;;;;;;5082362;28;19916;-87
2022/09/28 08:37:11;;;;;;;;;;;;;;;;;;5076279;28;19916;-86
2022/09/28 08:39:36;;;;;;;;;;;;;;;;;;5098675;28;19958;-90
2022/09/28 08:42:08;;;;;;;;;;;;;;;;;;5078203;28;19928;-87
2022/09/28 08:45:02;;;;;;;;;;;;;;;;;;5056005;28;19916;-88
2022/09/28 08:50:23;;;;;;;;;;;;;;;;;;5081673;28;19923;-88
2022/09/28 08:52:52;;;;;;;;;;;;;;;;;;5072405;28;19919;-87
2022/09/28 08:55:18;;;;;;;;;;;;;;;;;;5092329;28;19945;-86
2022/09/28 08:57:47;;;;;;;;;;;;;;;;;;5072960;28;20007;-88
2022/09/28 09:00:18;;;;;;;;;;;;;;;;;;5071414;28;19935;-88
2022/09/28 09:02:45;;;;;;;;;;;;;;;;;;5072942;28;20371;-89
2022/09/28 09:05:13;;;;;;;;;;;;;;;;;;5089349;28;19920;-89
2022/09/28 09:07:51;;;;;;;;;;;;;;;;;;5089248;28;19917;-88
2022/09/28 09:10:46;;;;;;;;;;;;;;;;;;5072578;28;19920;-88
2022/09/28 09:13:26;;;;;;;;;;;;;;;;;;5063652;28;20430;-88
2022/09/28 09:15:56;;;;;;;;;;;;;;;;;;5043075;28;20066;-88
2022/09/28 09:18:32;;;;;;;;;;;;;;;;;;5055648;28;19921;-90
2022/09/28 09:20:58;;;;;;;;;;;;;;;;;;5055469;28;20433;-91
2022/09/28 09:23:23;;;;;;;;;;;;;;;;;;5038570;28;19923;-92
2022/09/28 09:25:53;;;;;;;;;;;;;;;;;;5057193;28;19916;-90
2022/09/28 09:28:37;;;;;;;;;;;;;;;;;;5054274;28;19917;-90
2022/09/28 09:31:08;;;;;;;;;;;;;;;;;;5056200;28;19925;-91
2022/09/28 09:33:37;;;;;;;;;;;;;;;;;;5037843;28;19925;-90
2022/09/28 09:36:08;;;;;;;;;;;;;;;;;;5059874;28;20405;-89
2022/09/28 09:38:40;;;;;;;;;;;;;;;;;;5077724;28;19974;-90
2022/09/28 09:41:06;;;;;;;;;;;;;;;;;;5076932;28;19917;-89
2022/09/28 09:43:49;;;;;;;;;;;;;;;;;;5080608;28;20359;-90
2022/09/28 09:46:21;;;;;;;;;;;;;;;;;;5076308;28;20474;-89
2022/09/28 09:49:03;;;;;;;;;;;;;;;;;;5061276;28;19948;-90
2022/09/28 09:51:47;;;;;;;;;;;;;;;;;;5077965;28;19966;-90
2022/09/28 09:54:20;;;;;;;;;;;;;;;;;;5094710;28;19927;-89
2022/09/28 09:56:58;;;;;;;;;;;;;;;;;;5078186;28;19905;-91
2022/09/28 09:59:26;;;;;;;;;;;;;;;;;;5049085;28;19947;-90
2022/09/28 10:01:52;;;;;;;;;;;;;;;;;;5059610;28;19920;-90
2022/09/28 10:04:22;;;;;;;;;;;;;;;;;;5059320;28;19960;-87
2022/09/28 10:06:49;;;;;;;;;;;;;;;;;;5055666;28;19928;-89
2022/09/28 10:09:33;;;;;;;;;;;;;;;;;;5056824;28;19924;-90
2022/09/28 10:11:59;;;;;;;;;;;;;;;;;;5059161;28;20346;-89
2022/09/28 10:14:24;;;;;;;;;;;;;;;;;;5054447;28;20055;-90
2022/09/28 10:16:52;;;;;;;;;;;;;;;;;;5054098;28;19939;-89
2022/09/28 10:19:20;;;;;;;;;;;;;;;;;;5061072;28;19970;-87
2022/09/28 10:21:47;;;;;;;;;;;;;;;;;;5060101;28;20004;-89
2022/09/28 10:24:27;;;;;;;;;;;;;;;;;;5058772;28;19939;-89
2022/09/28 10:26:53;;;;;;;;;;;;;;;;;;5058805;28;19917;-90
2022/09/28 10:29:20;;;;;;;;;;;;;;;;;;5040876;28;19920;-90
2022/09/28 10:31:47;;;;;;;;;;;;;;;;;;5056507;28;19921;-89
2022/09/28 10:34:14;;;;;;;;;;;;;;;;;;5058844;28;19927;-89
2022/09/28 10:36:57;;;;;;;;;;;;;;;;;;5057325;28;19912;-91
2022/09/28 10:39:41;;;;;;;;;;;;;;;;;;5055859;28;19916;-91
2022/09/28 10:42:08;;;;;;;;;;;;;;;;;;5056865;28;19924;-90
2022/09/28 10:44:36;;;;;;;;;;;;;;;;;;5058293;28;19923;-89
2022/09/28 10:47:02;;;;;;;;;;;;;;;;;;5041081;28;19913;-90
2022/09/28 10:49:39;;;;;;;;;;;;;;;;;;5040659;28;19923;-90
2022/09/28 10:52:07;;;;;;;;;;;;;;;;;;5056175;28;20292;-89
2022/09/28 10:54:33;;;;;;;;;;;;;;;;;;5054449;28;19927;-90
2022/09/28 10:56:58;;;;;;;;;;;;;;;;;;5057523;28;19952;-90
2022/09/28 10:59:34;;;;;;;;;;;;;;;;;;5056335;28;19960;-90
2022/09/28 11:02:20;;;;;;;;;;;;;;;;;;5038136;28;19916;-91
2022/09/28 11:04:59;;;;;;;;;;;;;;;;;;5038399;28;19916;-91
2022/09/28 11:07:27;;;;;;;;;;;;;;;;;;5052911;28;19962;-89
2022/09/28 11:09:53;;;;;;;;;;;;;;;;;;5058210;28;20015;-90
2022/09/28 11:12:42;;;;;;;;;;;;;;;;;;5037704;28;20011;-90
2022/09/28 11:15:15;;;;;;;;;;;;;;;;;;5069304;28;20015;-89
2022/09/28 11:17:42;;;;;;;;;;;;;;;;;;5070717;28;19931;-90
2022/09/28 11:20:23;;;;;;;;;;;;;;;;;;5066118;28;19955;-90
2022/09/28 11:22:49;;;;;;;;;;;;;;;;;;5071834;28;19916;-91
2022/09/28 11:25:17;;;;;;;;;;;;;;;;;;5070548;28;19921;-91
2022/09/28 11:27:52;;;;;;;;;;;;;;;;;;5064496;28;19920;-91
2022/09/28 11:30:29;;;;;;;;;;;;;;;;;;5060886;28;19920;-90
2022/09/28 11:33:00;;;;;;;;;;;;;;;;;;5067759;28;19924;-90
2022/09/28 11:35:30;;;;;;;;;;;;;;;;;;5052784;28;19930;-90
2022/09/28 11:38:10;;;;;;;;;;;;;;;;;;5071009;28;19928;-90
2022/09/28 11:40:45;;;;;;;;;;;;;;;;;;5073200;28;20272;-90
2022/09/28 11:43:17;;;;;;;;;;;;;;;;;;5065407;28;20275;-89
2022/09/28 11:45:52;;;;;;;;;;;;;;;;;;5051719;28;19955;-90
2022/09/28 11:48:22;;;;;;;;;;;;;;;;;;5072169;28;19917;-89
2022/09/28 11:50:53;;;;;;;;;;;;;;;;;;5072351;28;20303;-90
2022/09/28 11:53:22;;;;;;;;;;;;;;;;;;5074186;22;20019;-90
2022/09/28 11:55:57;;;;;;;;;;;;;;;;;;5052679;28;19990;-89
2022/09/28 11:58:34;;;;;;;;;;;;;;;;;;5051464;28;20410;-90
2022/09/28 12:01:14;;;;;;;;;;;;;;;;;;5050954;28;20425;-89
2022/09/28 12:03:43;;;;;;;;;;;;;;;;;;5051573;28;19920;-90
2022/09/28 12:06:14;;;;;;;;;;;;;;;;;;5053261;28;19958;-90
2022/09/28 12:08:41;;;;;;;;;;;;;;;;;;5050151;28;19921;-90
2022/09/28 12:11:08;;;;;;;;;;;;;;;;;;5056482;28;19913;-90
2022/09/28 12:13:37;;;;;;;;;;;;;;;;;;5062870;28;19920;-90
2022/09/28 12:16:07;;;;;;;;;;;;;;;;;;5052490;28;19913;-90
2022/09/28 12:18:45;;;;;;;;;;;;;;;;;;5051317;28;19917;-91
2022/09/28 12:21:21;;;;;;;;;;;;;;;;;;5052198;28;19920;-90
2022/09/28 12:23:47;;;;;;;;;;;;;;;;;;5051471;28;20372;-91
2022/09/28 12:26:31;;;;;;;;;;;;;;;;;;5051548;28;19927;-90
2022/09/28 12:28:59;;;;;;;;;;;;;;;;;;5051142;28;19917;-90
2022/09/28 12:31:33;;;;;;;;;;;;;;;;;;5050798;28;19924;-90
2022/09/28 12:33:58;;;;;;;;;;;;;;;;;;5052659;28;19920;-90
2022/09/28 12:36:32;;;;;;;;;;;;;;;;;;5052142;28;19920;-91
2022/09/28 12:39:07;;;;;;;;;;;;;;;;;;5052319;28;19944;-90
2022/09/28 12:41:38;;;;;;;;;;;;;;;;;;5051959;28;19921;-90
2022/09/28 12:44:23;;;;;;;;;;;;;;;;;;5052709;28;19966;-91
2022/09/28 12:46:57;;;;;;;;;;;;;;;;;;5050474;28;20391;-91
2022/09/28 12:49:23;;;;;;;;;;;;;;;;;;5044283;28;19971;-90
2022/09/28 12:51:54;;;;;;;;;;;;;;;;;;5051900;28;19966;-91
2022/09/28 12:54:38;;;;;;;;;;;;;;;;;;5055922;28;19921;-89
2022/09/28 12:57:36;;;;;;;;;;;;;;;;;;5056190;28;19960;-89
2022/09/28 13:00:01;;;;;;;;;;;;;;;;;;5032984;28;20415;-89
2022/09/28 13:02:30;;;;;;;;;;;;;;;;;;5053276;28;19964;-91
2022/09/28 13:05:14;;;;;;;;;;;;;;;;;;5034847;28;19917;-90
2022/09/28 13:07:49;;;;;;;;;;;;;;;;;;5034913;28;19982;-90
2022/09/28 13:10:22;;;;;;;;;;;;;;;;;;5060507;22;20019;-90
2022/09/28 13:13:06;;;;;;;;;;;;;;;;;;5065497;28;20007;-91
2022/09/28 13:15:38;;;;;;;;;;;;;;;;;;5065953;28;19916;-90
2022/09/28 13:18:07;;;;;;;;;;;;;;;;;;5066195;28;20034;-91
2022/09/28 13:20:46;;;;;;;;;;;;;;;;;;5075674;28;19916;-91
2022/09/28 13:23:30;;;;;;;;;;;;;;;;;;5075304;28;19974;-89
2022/09/28 13:25:58;;;;;;;;;;;;;;;;;;5074585;28;19920;-89
2022/09/28 13:28:24;;;;;;;;;;;;;;;;;;5075863;28;19924;-89
2022/09/28 13:30:51;;;;;;;;;;;;;;;;;;5075784;28;19923;-88
2022/09/28 13:33:20;;;;;;;;;;;;;;;;;;5074170;28;20287;-89
2022/09/28 13:35:46;;;;;;;;;;;;;;;;;;5080078;28;19960;-89
2022/09/28 13:38:15;;;;;;;;;;;;;;;;;;5083559;28;19974;-90
2022/09/28 13:41:02;;;;;;;;;;;;;;;;;;5092874;28;19935;-89
2022/09/28 13:43:56;;;;;;;;;;;;;;;;;;5064113;28;19970;-90
2022/09/28 13:46:40;;;;;;;;;;;;;;;;;;5056141;28;20392;-83
2022/09/28 13:49:17;;;;;;;;;;;;;;;;;;5055341;28;19924;-90
2022/09/28 13:51:54;;;;;;;;;;;;;;;;;;5070612;28;19943;-90
2022/09/28 13:54:25;;;;;;;;;;;;;;;;;;5056259;28;19943;-90
2022/09/28 13:56:51;;;;;;;;;;;;;;;;;;5054370;28;19927;-90
2022/09/28 13:59:26;;;;;;;;;;;;;;;;;;5056720;28;19917;-89
2022/09/28 14:02:10;;;;;;;;;;;;;;;;;;5063216;28;20015;-90
2022/09/28 14:04:51;;;;;;;;;;;;;;;;;;5062277;28;20002;-91
2022/09/28 14:07:22;;;;;;;;;;;;;;;;;;5075009;28;19917;-92
2022/09/28 14:10:08;;;;;;;;;;;;;;;;;;5073978;28;19998;-92
2022/09/28 14:12:33;;;;;;;;;;;;;;;;;;5074200;28;19923;-92
2022/09/28 14:14:59;;;;;;;;;;;;;;;;;;5073082;28;19916;-92
2022/09/28 14:17:27;;;;;;;;;;;;;;;;;;5070562;28;19921;-91
2022/09/28 14:20:13;;;;;;;;;;;;;;;;;;5069774;28;20303;-92
2022/09/28 14:22:53;;;;;;;;;;;;;;;;;;5072538;28;19917;-92
2022/09/28 14:25:22;;;;;;;;;;;;;;;;;;5073083;28;20338;-91
2022/09/28 14:27:47;;;;;;;;;;;;;;;;;;5072489;28;19921;-91
2022/09/28 14:30:13;;;;;;;;;;;;;;;;;;5076104;28;20346;-91
2022/09/28 14:32:39;;;;;;;;;;;;;;;;;;5075354;28;19921;-94
2022/09/28 14:35:25;;;;;;;;;;;;;;;;;;5073692;28;20353;-92
2022/09/28 14:41:09;;;;;;;;;;;;;;;;;;5057367;28;19971;-91
2022/09/28 14:43:44;;;;;;;;;;;;;;;;;;5054197;28;20055;-92
2022/09/28 14:48:42;;;;;;;;;;;;;;;;;;5054770;28;19917;-92
2022/09/28 14:51:32;;;;;;;;;;;;;;;;;;5054176;28;19916;-90
2022/09/28 14:54:08;;;;;;;;;;;;;;;;;;5034431;28;20384;-92
2022/09/28 14:56:57;;;;;;;;;;;;;;;;;;5054411;28;19956;-93
2022/09/28 14:59:34;;;;;;;;;;;;;;;;;;5057733;28;20280;-92
2022/09/28 15:02:18;;;;;;;;;;;;;;;;;;5067189;28;19922;-91
2022/09/28 15:04:55;;;;;;;;;;;;;;;;;;5066106;28;19917;-92
2022/09/28 15:07:25;;;;;;;;;;;;;;;;;;5069835;28;19928;-91
2022/09/28 15:09:57;;;;;;;;;;;;;;;;;;5058056;28;19974;-91
2022/09/28 15:12:27;;;;;;;;;;;;;;;;;;5052389;28;19917;-91
2022/09/28 15:14:55;;;;;;;;;;;;;;;;;;5052722;28;19912;-92
2022/09/28 15:17:22;;;;;;;;;;;;;;;;;;5053272;28;19921;-91
2022/09/28 15:19:56;;;;;;;;;;;;;;;;;;5059456;28;19912;-92
2022/09/28 15:22:21;;;;;;;;;;;;;;;;;;5072299;28;19920;-92
2022/09/28 15:24:58;;;;;;;;;;;;;;;;;;5073913;28;19916;-91
2022/09/28 15:27:23;;;;;;;;;;;;;;;;;;5072591;28;19957;-92
2022/09/28 15:29:59;;;;;;;;;;;;;;;;;;5071338;28;20393;-91
2022/09/28 15:32:25;;;;;;;;;;;;;;;;;;5053251;28;19917;-91
2022/09/28 15:34:51;;;;;;;;;;;;;;;;;;5059116;28;19935;-95
2022/09/28 15:37:24;;;;;;;;;;;;;;;;;;5068497;28;20390;-94
2022/09/28 15:39:52;;;;;;;;;;;;;;;;;;5054043;28;19956;-93
2022/09/28 15:42:56;;;;;;;;;;;;;;;;;;5066712;28;19907;-93
2022/09/28 15:45:50;;;;;;;;;;;;;;;;;;5077256;22;19909;-94
2022/09/28 15:48:38;;;;;;;;;;;;;;;;;;5037609;28;19909;-94
2022/09/28 15:51:24;;;;;;;;;;;;;;;;;;5046233;28;19928;-95
2022/09/28 15:54:18;;;;;;;;;;;;;;;;;;5047323;28;19947;-93
2022/09/28 15:57:01;;;;;;;;;;;;;;;;;;5031193;28;20428;-95
2022/09/28 15:59:51;;;;;;;;;;;;;;;;;;5026964;28;20431;-95
2022/09/28 16:02:36;;;;;;;;;;;;;;;;;;5121342;22;19955;-93
2022/09/28 16:05:04;;;;;;;;;;;;;;;;;;5070615;28;20446;-94
2022/09/28 16:07:34;;;;;;;;;;;;;;;;;;5074003;28;19991;-93
2022/09/28 16:10:03;;;;;;;;;;;;;;;;;;5074791;28;19943;-93
2022/09/28 16:12:38;;;;;;;;;;;;;;;;;;5074994;28;19932;-94
2022/09/28 16:15:05;;;;;;;;;;;;;;;;;;5080526;28;20398;-94
2022/09/28 16:17:36;;;;;;;;;;;;;;;;;;5074441;28;19917;-94
2022/09/28 16:20:35;;;;;;;;;;;;;;;;;;5080017;28;19983;-94
2022/09/28 16:23:20;;;;;;;;;;;;;;;;;;5045111;28;19950;-94
2022/09/28 16:26:02;;;;;;;;;;;;;;;;;;5089396;28;19904;-94
2022/09/28 16:31:55;;;;;;;;;;;;;;;;;;5033743;28;19928;-93
2022/09/28 16:34:50;;;;;;;;;;;;;;;;;;5028841;28;19925;-93
2022/09/28 16:37:30;;;;;;;;;;;;;;;;;;5023267;28;20417;-93
2022/09/28 16:39:57;;;;;;;;;;;;;;;;;;5019997;28;19918;-94
2022/09/28 16:42:23;;;;;;;;;;;;;;;;;;5027035;28;20012;-93
2022/09/28 16:44:55;;;;;;;;;;;;;;;;;;5024943;28;20001;-95
2022/09/28 16:47:23;;;;;;;;;;;;;;;;;;5000509;28;19948;-94
2022/09/28 16:49:50;;;;;;;;;;;;;;;;;;5007814;28;19914;-94
2022/09/28 16:55:13;;;;;;;;;;;;;;;;;;5037195;28;19922;-96
2022/09/28 16:55:14;;;;;;;;;;;;;;;;;;5036426;28;19920;-94
2022/09/28 16:57:49;;;;;;;;;;;;;;;;;;5034517;28;19957;-94
2022/09/28 17:00:19;;;;;;;;;;;;;;;;;;5018032;28;19925;-94
2022/09/28 17:03:01;;;;;;;;;;;;;;;;;;5008182;28;19938;-94
2022/09/28 17:05:28;;;;;;;;;;;;;;;;;;4997893;28;19926;-94
2022/09/28 17:08:08;;;;;;;;;;;;;;;;;;5026296;28;19988;-94
2022/09/28 17:10:44;;;;;;;;;;;;;;;;;;5032968;28;19917;-94
2022/09/28 17:13:11;;;;;;;;;;;;;;;;;;5030358;28;19917;-95
2022/09/28 17:15:39;;;;;;;;;;;;;;;;;;5030792;28;19917;-95
2022/09/28 17:18:05;;;;;;;;;;;;;;;;;;5031618;28;19917;-95
2022/09/28 17:20:32;;;;;;;;;;;;;;;;;;5031903;28;19917;-94
2022/09/28 17:23:10;;;;;;;;;;;;;;;;;;5037087;28;19901;-95
2022/09/28 17:25:36;;;;;;;;;;;;;;;;;;5062435;28;19952;-95
2022/09/28 17:28:33;;;;;;;;;;;;;;;;;;5072775;28;19935;-95
2022/09/28 17:30:59;;;;;;;;;;;;;;;;;;5054867;28;19972;-92
2022/09/28 17:33:24;;;;;;;;;;;;;;;;;;5076478;28;19908;-93
2022/09/28 17:38:51;;;;;;;;;;;;;;;;;;5082671;28;19984;-93